createdAt,value
2019-04-05T00:01:28.589Z,21.73
2019-04-05T00:03:57.829Z,23.10
2019-04-05T00:06:27.074Z,21.83
2019-04-05T00:08:56.569Z,22.17
2019-04-05T00:11:25.944Z,19.90
2019-04-05T00:13:55.213Z,20.17
2019-04-05T00:16:24.463Z,21.80
2019-04-05T00:18:53.713Z,21.80
2019-04-05T00:21:22.948Z,23.00
2019-04-05T00:23:52.204Z,24.03
2019-04-05T00:26:21.439Z,26.10
2019-04-05T00:28:51.932Z,26.63
2019-04-05T00:31:21.359Z,26.30
2019-04-05T00:33:50.571Z,22.90
2019-04-05T00:36:19.848Z,19.93
2019-04-05T00:38:56.799Z,22.67
2019-04-05T00:41:26.048Z,21.60
2019-04-05T00:43:55.294Z,22.20
2019-04-05T00:46:26.484Z,21.83
2019-04-05T00:48:55.884Z,22.40
2019-04-05T00:51:25.224Z,21.40
2019-04-05T00:53:54.474Z,23.43
2019-04-05T00:56:23.776Z,22.63
2019-04-05T00:58:53.111Z,22.20
2019-04-05T01:01:22.352Z,22.03
2019-04-05T01:03:51.635Z,22.53
2019-04-05T01:06:21.034Z,22.10
2019-04-05T01:08:50.528Z,24.77
2019-04-05T01:11:19.944Z,22.50
2019-04-05T01:13:49.772Z,23.03
2019-04-05T01:16:38.400Z,23.63
2019-04-05T01:19:10.796Z,21.73
2019-04-05T01:21:40.820Z,25.90
2019-04-05T01:24:11.627Z,23.63
2019-04-05T01:26:43.872Z,24.73
2019-04-05T01:29:13.615Z,24.67
2019-04-05T01:31:43.039Z,25.07
2019-04-05T01:34:12.367Z,24.37
2019-04-05T01:37:00.957Z,23.43
2019-04-05T01:39:30.217Z,26.60
2019-04-05T01:42:18.898Z,25.10
2019-04-05T01:44:48.553Z,26.53
2019-04-05T01:47:17.943Z,24.90
2019-04-05T01:49:47.320Z,26.03
2019-04-05T01:52:16.831Z,27.50
2019-04-05T01:54:46.064Z,26.50
2019-04-05T01:57:15.464Z,29.87
2019-04-05T01:59:44.707Z,27.57
2019-04-05T02:02:17.154Z,28.10
2019-04-05T02:04:46.544Z,28.70
2019-04-05T02:07:16.743Z,28.10
2019-04-05T02:09:46.235Z,30.30
2019-04-05T02:12:15.611Z,30.77
2019-04-05T02:15:05.555Z,27.90
2019-04-05T02:17:36.036Z,30.17
2019-04-05T02:20:07.834Z,31.03
2019-04-05T02:22:37.326Z,29.80
2019-04-05T02:25:07.141Z,31.33
2019-04-05T02:27:36.397Z,31.50
2019-04-05T02:30:07.118Z,32.60
2019-04-05T02:32:36.427Z,30.60
2019-04-05T02:35:07.706Z,28.47
2019-04-05T02:37:37.516Z,26.87
2019-04-05T02:40:09.971Z,31.50
2019-04-05T02:42:40.293Z,31.67
2019-04-05T02:45:12.050Z,30.30
2019-04-05T02:47:44.450Z,30.30
2019-04-05T02:50:15.853Z,31.00
2019-04-05T02:52:46.023Z,31.40
2019-04-05T02:55:35.296Z,30.30
2019-04-05T02:58:05.709Z,32.17
2019-04-05T03:00:35.284Z,30.87
2019-04-05T03:03:05.998Z,33.83
2019-04-05T03:05:37.260Z,32.17
2019-04-05T03:08:08.247Z,32.83
2019-04-05T03:11:06.753Z,33.63
2019-04-05T03:13:38.549Z,35.20
2019-04-05T03:16:10.872Z,33.20
2019-04-05T03:19:03.984Z,31.40
2019-04-05T03:21:35.871Z,31.87
2019-04-05T03:24:06.022Z,33.67
2019-04-05T03:26:38.702Z,30.97
2019-04-05T03:29:09.961Z,33.20
2019-04-05T03:32:00.105Z,31.60
2019-04-05T03:34:48.782Z,30.80
2019-04-05T03:37:18.644Z,31.83
2019-04-05T03:40:09.591Z,34.10
2019-04-05T03:42:39.194Z,34.70
2019-04-05T03:45:09.264Z,31.77
2019-04-05T03:47:38.600Z,33.97
2019-04-05T03:50:07.892Z,35.13
2019-04-05T03:52:37.599Z,35.07
2019-04-05T03:55:07.290Z,33.03
2019-04-05T03:57:36.790Z,33.77
2019-04-05T04:00:07.059Z,34.13
2019-04-05T04:02:36.465Z,33.20
2019-04-05T04:05:06.695Z,35.13
2019-04-05T04:07:35.932Z,35.70
2019-04-05T04:10:08.250Z,36.57
2019-04-05T04:12:37.613Z,36.13
2019-04-05T04:15:14.855Z,34.93
2019-04-05T04:17:44.815Z,35.77
2019-04-05T04:20:36.646Z,36.27
2019-04-05T04:23:07.889Z,33.80
2019-04-05T04:25:38.659Z,34.53
2019-04-05T04:28:08.271Z,34.87
2019-04-05T04:30:38.164Z,33.27
2019-04-05T04:33:26.980Z,31.20
2019-04-05T04:35:56.371Z,32.60
2019-04-05T04:38:26.061Z,43.98
2019-04-05T04:40:55.680Z,36.53
2019-04-05T04:43:26.011Z,33.70
2019-04-05T04:45:55.464Z,32.60
2019-04-05T04:48:24.870Z,31.77
2019-04-05T04:51:13.530Z,29.40
2019-04-05T04:53:43.530Z,29.97
2019-04-05T04:56:13.026Z,30.20
2019-04-05T04:58:42.437Z,29.93
2019-04-05T05:01:11.752Z,29.97
2019-04-05T05:03:41.423Z,29.97
2019-04-05T05:06:11.026Z,29.00
2019-04-05T05:08:40.805Z,28.37
2019-04-05T05:11:14.816Z,30.50
2019-04-05T05:13:41.694Z,29.57
2019-04-05T05:16:11.416Z,32.57
2019-04-05T05:18:41.070Z,32.70
2019-04-05T05:21:29.822Z,33.17
2019-04-05T05:23:59.633Z,33.10
2019-04-05T05:26:29.395Z,33.10
2019-04-05T05:29:18.274Z,33.63
2019-04-05T05:31:48.770Z,33.57
2019-04-05T05:34:18.102Z,32.47
2019-04-05T05:36:47.746Z,30.07
2019-04-05T05:39:17.355Z,31.60
2019-04-05T05:41:46.746Z,32.57
2019-04-05T05:44:17.615Z,33.10
2019-04-05T05:46:46.872Z,32.87
2019-04-05T05:49:16.125Z,34.07
2019-04-05T05:51:46.838Z,33.80
2019-04-05T05:54:16.214Z,34.13
2019-04-05T05:56:45.528Z,34.97
2019-04-05T05:59:14.991Z,33.00
2019-04-05T06:01:44.276Z,34.03
2019-04-05T06:04:15.760Z,35.13
2019-04-05T06:07:04.761Z,34.80
2019-04-05T06:09:34.063Z,33.30
2019-04-05T06:12:03.408Z,35.37
2019-04-05T06:15:27.804Z,35.47
2019-04-05T06:18:04.549Z,35.67
2019-04-05T06:20:28.219Z,34.67
2019-04-05T06:22:58.733Z,38.20
2019-04-05T06:25:28.096Z,38.10
2019-04-05T06:27:59.779Z,38.10
2019-04-05T06:30:28.838Z,37.03
2019-04-05T06:33:36.014Z,37.30
2019-04-05T06:36:05.444Z,36.47
2019-04-05T06:38:34.702Z,34.50
2019-04-05T06:41:04.065Z,36.63
2019-04-05T06:43:33.367Z,33.43
2019-04-05T06:46:02.813Z,34.20
2019-04-05T06:48:32.133Z,35.23
2019-04-05T06:51:01.508Z,34.07
2019-04-05T06:53:30.838Z,34.43
2019-04-05T06:56:00.405Z,33.77
2019-04-05T06:58:29.829Z,34.63
2019-04-05T07:00:59.315Z,33.23
2019-04-05T07:03:28.572Z,32.57
2019-04-05T07:05:57.859Z,35.47
2019-04-05T07:08:27.177Z,33.27
2019-04-05T07:11:15.787Z,31.20
2019-04-05T07:13:45.143Z,32.43
2019-04-05T07:16:14.457Z,32.07
2019-04-05T07:18:43.743Z,31.40
2019-04-05T07:21:17.112Z,30.20
2019-04-05T07:23:44.259Z,35.90
2019-04-05T07:26:13.790Z,29.13
2019-04-05T07:28:43.054Z,29.13
2019-04-05T07:31:31.738Z,30.80
2019-04-05T07:34:01.006Z,28.80
2019-04-05T07:36:30.250Z,26.53
2019-04-05T07:38:59.526Z,26.87
2019-04-05T07:41:31.604Z,29.03
2019-04-05T07:43:59.701Z,26.60
2019-04-05T07:46:28.960Z,26.13
2019-04-05T07:48:58.208Z,27.50
2019-04-05T07:51:27.540Z,26.50
2019-04-05T07:53:56.794Z,25.67
2019-04-05T07:56:26.182Z,25.80
2019-04-05T07:58:55.449Z,27.80
2019-04-05T08:01:24.679Z,27.60
2019-04-05T08:03:54.019Z,26.63
2019-04-05T08:06:23.328Z,24.03
2019-04-05T08:09:07.464Z,24.47
2019-04-05T08:11:37.563Z,23.40
2019-04-05T08:14:07.648Z,25.30
2019-04-05T08:16:36.979Z,26.97
2019-04-05T08:19:06.276Z,24.00
2019-04-05T08:21:35.499Z,24.50
2019-04-05T08:24:24.108Z,29.53
2019-04-05T08:26:53.335Z,24.97
2019-04-05T08:29:22.690Z,25.90
2019-04-05T08:31:51.915Z,23.83
2019-04-05T08:34:21.187Z,25.90
2019-04-05T08:36:50.594Z,23.77
2019-04-05T08:39:19.846Z,27.90
2019-04-05T08:41:49.091Z,26.77
2019-04-05T08:44:18.463Z,26.40
2019-04-05T08:46:47.731Z,26.00
2019-04-05T08:49:17.291Z,26.53
2019-04-05T08:51:46.532Z,28.80
2019-04-05T08:54:15.958Z,26.67
2019-04-05T08:56:45.342Z,27.23
2019-04-05T08:59:17.289Z,25.43
2019-04-05T09:01:46.612Z,28.43
2019-04-05T09:04:17.459Z,25.63
2019-04-05T09:06:46.716Z,24.60
2019-04-05T09:09:36.833Z,26.60
2019-04-05T09:12:06.093Z,27.27
2019-04-05T09:14:35.369Z,24.90
2019-04-05T09:17:04.687Z,25.40
2019-04-05T09:19:33.970Z,26.13
2019-04-05T09:22:22.947Z,21.47
2019-04-05T09:24:52.203Z,22.63
2019-04-05T09:27:21.471Z,20.70
2019-04-05T09:29:53.830Z,22.37
2019-04-05T09:32:23.125Z,20.63
2019-04-05T09:34:52.428Z,21.30
2019-04-05T09:37:22.859Z,21.40
2019-04-05T09:39:52.211Z,23.33
2019-04-05T09:42:22.295Z,22.10
2019-04-05T09:44:51.561Z,19.70
2019-04-05T09:47:20.870Z,20.60
2019-04-05T09:49:50.139Z,22.40
2019-04-05T09:52:19.409Z,21.20
2019-04-05T09:54:48.824Z,20.63
2019-04-05T09:57:18.198Z,18.93
2019-04-05T09:59:47.450Z,18.50
2019-04-05T10:02:16.864Z,18.70
2019-04-05T10:04:46.175Z,19.37
2019-04-05T10:07:15.478Z,19.57
2019-04-05T10:09:44.722Z,19.60
2019-04-05T10:12:14.022Z,18.10
2019-04-05T10:14:43.264Z,23.90
2019-04-05T10:17:12.551Z,20.43
2019-04-05T10:19:49.746Z,19.87
2019-04-05T10:22:12.859Z,19.70
2019-04-05T10:24:42.250Z,19.83
2019-04-05T10:27:11.508Z,18.80
2019-04-05T10:29:40.876Z,19.63
2019-04-05T10:32:10.261Z,17.77
2019-04-05T10:34:39.562Z,18.13
2019-04-05T10:37:08.798Z,19.37
2019-04-05T10:39:38.052Z,17.60
2019-04-05T10:42:10.395Z,19.53
2019-04-05T10:44:39.745Z,19.07
2019-04-05T10:47:28.562Z,20.30
2019-04-05T10:50:03.475Z,19.70
2019-04-05T10:52:28.850Z,19.33
2019-04-05T10:54:58.177Z,17.07
2019-04-05T10:57:28.062Z,20.17
2019-04-05T11:00:46.100Z,20.00
2019-04-05T11:03:16.406Z,18.73
2019-04-05T11:05:45.703Z,17.40
2019-04-05T11:08:15.607Z,19.40
2019-04-05T11:10:44.892Z,17.90
2019-04-05T11:13:15.844Z,18.13
2019-04-05T11:15:45.122Z,20.80
2019-04-05T11:18:14.427Z,19.20
2019-04-05T11:20:44.041Z,21.17
2019-04-05T11:23:13.381Z,18.87
2019-04-05T11:25:42.755Z,19.30
2019-04-05T11:28:12.209Z,18.40
2019-04-05T11:30:56.619Z,18.53
2019-04-05T11:33:28.291Z,16.70
2019-04-05T11:35:58.098Z,17.90
2019-04-05T11:38:27.924Z,16.23
2019-04-05T11:40:57.406Z,17.17
2019-04-05T11:43:31.223Z,17.50
2019-04-05T11:46:19.616Z,17.17
2019-04-05T11:48:49.263Z,16.20
2019-04-05T11:51:18.595Z,17.50
2019-04-05T11:53:47.891Z,17.07
2019-04-05T11:56:19.787Z,17.93
2019-04-05T11:58:50.418Z,17.60
2019-04-05T12:01:27.653Z,18.00
2019-04-05T12:03:57.044Z,16.63
2019-04-05T12:06:26.311Z,16.30
2019-04-05T12:08:55.598Z,18.60
2019-04-05T12:11:24.858Z,18.70
2019-04-05T12:13:54.100Z,17.33
2019-04-05T12:16:23.337Z,18.87
2019-04-05T12:18:52.607Z,18.13
2019-04-05T12:21:21.938Z,16.33
2019-04-05T12:23:51.215Z,17.07
2019-04-05T12:26:20.749Z,17.30
2019-04-05T12:28:50.012Z,16.70
2019-04-05T12:31:19.778Z,15.70
2019-04-05T12:34:08.422Z,16.17
2019-04-05T12:36:37.664Z,14.80
2019-04-05T12:39:08.296Z,14.70
2019-04-05T12:41:38.485Z,14.80
2019-04-05T12:44:09.019Z,16.33
2019-04-05T12:46:38.281Z,15.20
2019-04-05T12:49:07.634Z,14.37
2019-04-05T12:51:36.971Z,15.27
2019-04-05T12:54:06.427Z,15.27
2019-04-05T12:56:38.019Z,15.63
2019-04-05T12:59:07.673Z,15.73
2019-04-05T13:01:36.962Z,15.57
2019-04-05T13:04:06.267Z,15.67
2019-04-05T13:06:35.564Z,15.43
2019-04-05T13:09:08.913Z,14.83
2019-04-05T13:11:38.241Z,15.70
2019-04-05T13:14:20.080Z,14.93
2019-04-05T13:16:49.744Z,16.50
2019-04-05T13:19:19.127Z,16.60
2019-04-05T13:22:07.763Z,15.77
2019-04-05T13:24:39.531Z,18.67
2019-04-05T13:27:11.493Z,18.87
2019-04-05T13:29:40.348Z,17.77
2019-04-05T13:32:09.600Z,17.70
2019-04-05T13:34:38.867Z,19.07
2019-04-05T13:37:19.652Z,18.83
2019-04-05T13:39:39.172Z,18.10
2019-04-05T13:42:08.460Z,18.70
2019-04-05T13:44:37.735Z,18.40
2019-04-05T13:47:08.477Z,18.07
2019-04-05T13:49:57.456Z,20.30
2019-04-05T13:52:26.767Z,19.47
2019-04-05T13:54:56.152Z,20.37
2019-04-05T13:57:44.772Z,20.83
2019-04-05T14:00:17.464Z,20.57
2019-04-05T14:02:45.583Z,20.77
2019-04-05T14:05:16.593Z,21.70
2019-04-05T14:07:45.835Z,23.35
2019-04-05T14:10:15.923Z,21.73
2019-04-05T14:13:05.242Z,21.00
2019-04-05T14:15:34.497Z,22.20
2019-04-05T14:18:03.964Z,20.70
2019-04-05T14:20:34.784Z,22.23
2019-04-05T14:23:04.216Z,21.13
2019-04-05T14:25:33.606Z,21.97
2019-04-05T14:28:04.723Z,21.53
2019-04-05T14:30:33.922Z,20.87
2019-04-05T14:33:08.810Z,21.47
2019-04-05T14:35:38.078Z,21.17
2019-04-05T14:38:07.485Z,21.63
2019-04-05T14:40:36.742Z,22.83
2019-04-05T14:43:06.096Z,22.60
2019-04-05T14:45:38.884Z,24.33
2019-04-05T14:48:08.168Z,24.30
2019-04-05T14:50:57.899Z,22.47
2019-04-05T14:53:47.158Z,22.33
2019-04-05T14:56:16.555Z,22.13
2019-04-05T14:58:45.846Z,26.03
2019-04-05T15:01:17.519Z,115.77
2019-04-05T15:03:47.030Z,48.67
2019-04-05T15:06:16.430Z,30.20
2019-04-05T15:08:47.943Z,39.37
2019-04-05T15:11:16.649Z,22.00
2019-04-05T15:13:45.881Z,24.80
2019-04-05T15:16:15.279Z,21.80
2019-04-05T15:19:04.005Z,20.10
2019-04-05T15:21:34.651Z,21.93
2019-04-05T15:24:04.699Z,22.33
2019-04-05T15:26:33.997Z,20.90
2019-04-05T15:29:03.281Z,19.33
2019-04-05T15:31:32.645Z,25.20
2019-04-05T15:34:01.989Z,26.23
2019-04-05T15:36:31.562Z,21.87
2019-04-05T15:39:20.956Z,23.00
2019-04-05T15:41:50.231Z,23.60
2019-04-05T15:44:19.470Z,23.17
2019-04-05T15:47:08.084Z,24.03
2019-04-05T15:49:37.376Z,23.83
2019-04-05T15:52:18.026Z,25.43
2019-04-05T15:54:37.747Z,26.17
2019-04-05T15:57:07.105Z,22.60
2019-04-05T15:59:36.521Z,25.10
2019-04-05T16:02:06.023Z,22.80
2019-04-05T16:04:35.358Z,24.30
2019-04-05T16:07:04.891Z,23.70
2019-04-05T16:09:34.236Z,24.17
2019-04-05T16:12:03.841Z,22.17
2019-04-05T16:14:33.166Z,23.80
2019-04-05T16:17:02.608Z,23.83
2019-04-05T16:19:32.011Z,24.77
2019-04-05T16:22:01.364Z,26.57
2019-04-05T16:24:30.615Z,27.10
2019-04-05T16:26:59.882Z,24.87
2019-04-05T16:29:29.181Z,23.97
2019-04-05T16:31:58.447Z,25.07
2019-04-05T16:34:29.427Z,26.17
2019-04-05T16:36:58.669Z,24.33
2019-04-05T16:39:28.016Z,25.27
2019-04-05T16:41:57.288Z,24.93
2019-04-05T16:44:26.656Z,27.83
2019-04-05T16:46:56.004Z,25.50
2019-04-05T16:49:25.233Z,25.67
2019-04-05T16:51:54.529Z,27.80
2019-04-05T16:54:23.801Z,31.50
2019-04-05T16:56:55.122Z,29.43
2019-04-05T16:59:24.392Z,33.43
2019-04-05T17:01:56.639Z,30.33
2019-04-05T17:04:24.668Z,31.17
2019-04-05T17:07:01.873Z,28.33
2019-04-05T17:09:31.418Z,26.70
2019-04-05T17:12:00.691Z,24.37
2019-04-05T17:14:30.118Z,26.47
2019-04-05T17:16:59.411Z,25.50
2019-04-05T17:19:28.761Z,25.40
2019-04-05T17:21:58.188Z,24.83
2019-04-05T17:24:27.549Z,28.57
2019-04-05T17:26:56.816Z,27.50
2019-04-05T17:29:26.420Z,26.70
2019-04-05T17:31:58.241Z,28.03
2019-04-05T17:34:28.555Z,26.53
2019-04-05T17:36:58.015Z,27.03
2019-04-05T17:39:27.348Z,26.43
2019-04-05T17:41:56.624Z,28.10
2019-04-05T17:44:25.919Z,28.27
2019-04-05T17:46:55.336Z,30.53
2019-04-05T17:49:24.623Z,30.80
2019-04-05T17:51:54.091Z,28.80
2019-04-05T17:54:23.448Z,26.80
2019-04-05T17:56:52.853Z,28.93
2019-04-05T17:59:22.259Z,30.40
2019-04-05T18:01:51.699Z,29.33
2019-04-05T18:04:21.008Z,28.80
2019-04-05T18:07:27.295Z,27.10
2019-04-05T18:09:56.600Z,28.47
2019-04-05T18:12:25.948Z,29.37
2019-04-05T18:14:55.279Z,31.70
2019-04-05T18:17:24.606Z,30.70
2019-04-05T18:19:53.856Z,38.83
2019-04-05T18:22:23.213Z,31.23
2019-04-05T18:24:52.474Z,31.80
2019-04-05T18:27:21.838Z,27.83
2019-04-05T18:29:51.186Z,30.20
2019-04-05T18:32:20.455Z,29.30
2019-04-05T18:34:49.815Z,27.40
2019-04-05T18:37:19.725Z,30.50
2019-04-05T18:39:49.268Z,30.97
2019-04-05T18:42:18.588Z,28.97
2019-04-05T18:44:47.872Z,30.13
2019-04-05T18:47:17.137Z,29.67
2019-04-05T18:49:46.450Z,30.13
2019-04-05T18:52:15.755Z,30.67
2019-04-05T18:54:45.060Z,29.60
2019-04-05T18:57:14.439Z,29.63
2019-04-05T18:59:43.786Z,30.17
2019-04-05T19:02:13.198Z,27.63
2019-04-05T19:05:01.821Z,28.37
2019-04-05T19:07:32.975Z,30.50
2019-04-05T19:10:02.347Z,26.67
2019-04-05T19:12:51.230Z,29.20
2019-04-05T19:15:20.670Z,28.50
2019-04-05T19:17:50.047Z,28.20
2019-04-05T19:20:19.368Z,26.40
2019-04-05T19:22:48.744Z,28.93
2019-04-05T19:25:18.123Z,27.70
2019-04-05T19:27:47.469Z,29.37
2019-04-05T19:48:33.717Z,31.50
2019-04-05T19:50:47.561Z,31.97
2019-04-05T19:53:17.237Z,36.43
2019-04-05T19:55:46.605Z,35.10
2019-04-05T19:58:15.966Z,34.10
2019-04-05T20:00:45.524Z,36.83
2019-04-05T20:03:14.797Z,34.90
2019-04-05T20:05:44.059Z,35.40
2019-04-05T20:08:13.335Z,35.50
2019-04-05T20:10:42.705Z,38.27
2019-04-05T20:13:12.024Z,39.60
2019-04-05T20:15:41.356Z,37.87
2019-04-05T20:18:10.687Z,39.43
2019-04-05T20:20:40.099Z,38.07
2019-04-05T20:23:09.609Z,38.20
2019-04-05T20:25:58.311Z,35.93
2019-04-05T20:28:27.658Z,37.53
2019-04-05T20:30:58.190Z,39.40
2019-04-05T20:33:27.554Z,37.63
2019-04-05T20:35:56.871Z,38.20
2019-04-05T20:38:26.276Z,38.20
2019-04-05T20:40:57.982Z,39.40
2019-04-05T20:43:27.348Z,39.97
2019-04-05T20:45:56.670Z,40.23
2019-04-05T20:48:26.085Z,40.63
2019-04-05T20:51:02.855Z,37.30
2019-04-05T20:53:32.304Z,39.33
2019-04-05T20:56:01.619Z,39.23
2019-04-05T20:58:30.957Z,40.50
2019-04-05T21:01:07.497Z,40.07
2019-04-05T21:03:36.827Z,41.00
2019-04-05T21:06:06.239Z,38.50
2019-04-05T21:08:35.605Z,42.07
2019-04-05T21:11:04.896Z,42.67
2019-04-05T21:13:34.163Z,40.67
2019-04-05T21:16:03.492Z,41.53
2019-04-05T21:18:33.002Z,42.40
2019-04-05T21:21:02.383Z,42.60
2019-04-05T21:23:31.724Z,41.20
2019-04-05T21:26:01.080Z,41.70
2019-04-05T21:28:32.066Z,40.37
2019-04-05T21:31:20.639Z,40.47
2019-04-05T21:33:49.964Z,41.73
2019-04-05T21:36:19.269Z,40.90
2019-04-05T21:38:48.545Z,41.60
2019-04-05T21:41:17.942Z,42.60
2019-04-05T21:44:06.599Z,42.03
2019-04-05T21:46:55.251Z,43.17
2019-04-05T21:49:24.560Z,43.17
2019-04-05T21:51:53.894Z,40.83
2019-04-05T21:54:47.373Z,40.87
2019-04-05T21:57:32.886Z,42.90
2019-04-05T22:00:05.092Z,42.17
2019-04-05T22:02:34.460Z,42.17
2019-04-05T22:05:07.486Z,43.03
2019-04-05T22:07:36.711Z,44.33
2019-04-05T22:10:06.974Z,41.43
2019-04-05T22:12:36.275Z,43.70
2019-04-05T22:15:05.961Z,40.80
2019-04-05T22:17:35.224Z,41.10
2019-04-05T22:20:05.419Z,40.77
2019-04-05T22:22:34.822Z,41.80
2019-04-05T22:25:04.317Z,43.13
2019-04-05T22:27:33.621Z,41.37
2019-04-05T22:30:03.357Z,41.90
2019-04-05T22:32:32.677Z,42.67
2019-04-05T22:35:02.007Z,40.80
2019-04-05T22:37:31.319Z,40.97
2019-04-05T22:40:00.739Z,42.50
2019-04-05T22:42:30.155Z,41.07
2019-04-05T22:44:59.453Z,42.23
2019-04-05T22:47:28.711Z,41.73
2019-04-05T22:49:58.000Z,42.60
2019-04-05T22:52:27.384Z,42.60
2019-04-05T22:54:56.693Z,42.60
2019-04-05T22:57:26.499Z,43.03
2019-04-05T22:59:55.818Z,43.73
2019-04-05T23:02:25.124Z,43.23
2019-04-05T23:05:13.968Z,47.03
2019-04-05T23:07:43.241Z,44.90
2019-04-05T23:10:13.021Z,46.97
2019-04-05T23:12:42.275Z,47.30
2019-04-05T23:15:12.404Z,46.33
2019-04-05T23:17:41.655Z,46.70
2019-04-05T23:20:11.419Z,45.00
2019-04-05T23:22:40.671Z,47.07
2019-04-05T23:25:21.044Z,45.70
2019-04-05T23:27:40.988Z,45.37
2019-04-05T23:30:10.770Z,44.17
2019-04-05T23:32:40.147Z,48.17
2019-04-05T23:35:09.489Z,48.60
2019-04-05T23:37:38.719Z,47.60
2019-04-05T23:40:08.236Z,52.83
2019-04-05T23:42:40.547Z,50.13
2019-04-05T23:45:29.167Z,49.13
2019-04-05T23:47:58.494Z,51.27
2019-04-05T23:50:29.348Z,49.87
2019-04-05T23:52:58.604Z,53.73
2019-04-05T23:55:33.252Z,53.00
2019-04-05T23:57:59.695Z,52.20
